Time;durP1;ratioP1;P1;durP2;ratioP2;P2;SDS_P1;SDS_P2;PMS_P1;PMS_P2;Temp;Humidity;BMP_temperature;BMP_pressure;BME280_temperature;BME280_humidity;BME280_pressure;Samples;Min_cycle;Max_cycle;Signal;HPM_P1;HPM_P2
2022/08/21 00:00:11;;;;;;;5.93;3.05;;;18.70;99.90;;;;;;5010295;28;20061;-59
2022/08/21 00:02:37;;;;;;;8.32;3.30;;;18.70;99.90;;;;;;5010555;28;20091;-59
2022/08/21 00:05:04;;;;;;;9.20;3.03;;;18.60;99.90;;;;;;5011790;28;20041;-59
2022/08/21 00:07:30;;;;;;;9.30;2.80;;;18.60;99.90;;;;;;5011701;28;20057;-59
2022/08/21 00:09:55;;;;;;;11.10;3.15;;;18.60;99.90;;;;;;5010431;28;20399;-59
2022/08/21 00:12:22;;;;;;;6.65;3.05;;;18.60;99.90;;;;;;5011022;28;20154;-59
2022/08/21 00:14:48;;;;;;;11.02;3.67;;;18.50;99.90;;;;;;5010500;28;20050;-60
2022/08/21 00:17:13;;;;;;;8.63;3.33;;;18.50;99.90;;;;;;5011307;28;20057;-59
2022/08/21 00:19:39;;;;;;;8.02;3.28;;;18.50;99.90;;;;;;5011643;28;20108;-59
2022/08/21 00:22:05;;;;;;;11.85;4.03;;;18.40;99.90;;;;;;5013917;28;20081;-59
2022/08/21 00:24:31;;;;;;;9.13;3.58;;;18.40;99.90;;;;;;5015027;28;20061;-61
2022/08/21 00:26:56;;;;;;;8.35;3.22;;;18.30;99.90;;;;;;5014141;28;20053;-59
2022/08/21 00:29:22;;;;;;;9.50;3.40;;;18.40;99.90;;;;;;5014789;28;20266;-59
2022/08/21 00:31:48;;;;;;;9.20;3.30;;;18.30;99.90;;;;;;5014999;28;20041;-59
2022/08/21 00:34:14;;;;;;;7.53;3.25;;;18.20;99.90;;;;;;5014600;28;20049;-59
2022/08/21 00:36:40;;;;;;;9.80;3.95;;;18.20;99.90;;;;;;5014464;28;20048;-60
2022/08/21 00:39:08;;;;;;;7.90;3.40;;;18.10;99.90;;;;;;5014762;28;20423;-59
2022/08/21 00:41:36;;;;;;;11.13;3.63;;;18.10;99.90;;;;;;5014780;28;20054;-59
2022/08/21 00:44:03;;;;;;;8.32;3.78;;;18.00;99.90;;;;;;5013532;28;20391;-60
2022/08/21 00:46:29;;;;;;;13.00;4.03;;;18.00;99.90;;;;;;5014408;28;20081;-60
2022/08/21 00:48:56;;;;;;;9.00;3.83;;;18.00;99.90;;;;;;5014698;28;20050;-59
2022/08/21 00:51:46;;;;;;;8.77;3.78;;;18.00;99.90;;;;;;5013345;28;20328;-59
2022/08/21 00:54:13;;;;;;;8.32;3.53;;;18.00;99.90;;;;;;5014217;28;20042;-61
2022/08/21 00:56:39;;;;;;;9.00;3.80;;;18.00;99.90;;;;;;5013152;28;20061;-60
2022/08/21 00:59:06;;;;;;;6.72;3.33;;;17.90;99.90;;;;;;5014313;28;20045;-59
2022/08/21 01:01:31;;;;;;;8.93;3.80;;;17.90;99.90;;;;;;5012760;28;20056;-60
2022/08/21 01:03:57;;;;;;;8.75;3.70;;;17.90;99.90;;;;;;5013299;28;20038;-59
2022/08/21 01:06:23;;;;;;;7.05;3.45;;;17.80;99.90;;;;;;5014022;28;20395;-60
2022/08/21 01:08:50;;;;;;;11.30;4.10;;;17.80;99.90;;;;;;5014389;28;20045;-60
2022/08/21 01:11:16;;;;;;;9.05;3.40;;;17.80;99.90;;;;;;5013890;28;20076;-59
2022/08/21 01:13:45;;;;;;;11.80;4.20;;;17.70;99.90;;;;;;5012732;28;20054;-59
2022/08/21 01:16:13;;;;;;;8.48;3.65;;;17.70;99.90;;;;;;5014218;28;20050;-60
2022/08/21 01:18:39;;;;;;;8.40;3.75;;;17.70;99.90;;;;;;5014279;28;20387;-60
2022/08/21 01:21:15;;;;;;;8.82;3.72;;;17.60;99.90;;;;;;5013143;28;20120;-60
2022/08/21 01:23:43;;;;;;;9.40;3.90;;;17.60;99.90;;;;;;5014180;28;20046;-59
2022/08/21 01:26:10;;;;;;;8.05;3.42;;;17.60;99.90;;;;;;5014054;28;20132;-60
2022/08/21 01:28:49;;;;;;;8.50;3.20;;;17.60;99.90;;;;;;5012685;28;20049;-59
2022/08/21 01:31:17;;;;;;;7.80;3.00;;;17.60;99.90;;;;;;5014179;28;20125;-59
2022/08/21 01:33:43;;;;;;;8.32;3.50;;;17.50;99.90;;;;;;5013105;28;20104;-60
2022/08/21 01:36:09;;;;;;;10.73;3.85;;;17.60;99.90;;;;;;5012453;28;20085;-59
2022/08/21 01:38:35;;;;;;;9.80;3.70;;;17.60;99.90;;;;;;5013448;28;20054;-59
2022/08/21 01:41:01;;;;;;;8.60;3.80;;;17.50;99.90;;;;;;5012746;28;20053;-60
2022/08/21 01:43:26;;;;;;;8.43;3.70;;;17.50;99.90;;;;;;5013283;28;20395;-60
2022/08/21 01:45:52;;;;;;;7.15;3.90;;;17.50;99.90;;;;;;5013713;28;20046;-59
2022/08/21 01:48:18;;;;;;;12.50;4.10;;;17.50;99.90;;;;;;5012639;28;20122;-63
2022/08/21 01:50:43;;;;;;;9.70;3.95;;;17.50;99.90;;;;;;5012346;28;20049;-59
2022/08/21 01:53:09;;;;;;;10.70;4.10;;;17.50;99.90;;;;;;5013359;28;20388;-59
2022/08/21 01:55:35;;;;;;;8.98;3.67;;;17.40;99.90;;;;;;5013182;28;20050;-60
2022/08/21 01:58:01;;;;;;;9.48;3.30;;;17.40;99.90;;;;;;5013610;28;20483;-59
2022/08/21 02:00:26;;;;;;;7.32;3.42;;;17.40;99.90;;;;;;5013093;28;20509;-59
2022/08/21 02:02:52;;;;;;;6.95;3.55;;;17.40;99.90;;;;;;5012109;28;20088;-59
2022/08/21 02:05:19;;;;;;;8.60;3.80;;;17.40;99.90;;;;;;4996026;28;20085;-59
2022/08/21 02:07:48;;;;;;;10.13;4.03;;;17.40;99.90;;;;;;5012901;28;20478;-59
2022/08/21 02:10:19;;;;;;;10.48;3.75;;;17.40;99.90;;;;;;5013184;28;20042;-59
2022/08/21 02:12:45;;;;;;;7.90;3.92;;;17.40;99.90;;;;;;5012583;28;20462;-59
2022/08/21 02:15:11;;;;;;;7.57;3.60;;;17.40;99.90;;;;;;5013139;28;20089;-59
2022/08/21 02:17:43;;;;;;;7.72;3.55;;;17.40;99.90;;;;;;5011791;28;20078;-60
2022/08/21 02:20:14;;;;;;;9.63;4.10;;;17.30;99.90;;;;;;5011827;28;20104;-59
2022/08/21 02:22:40;;;;;;;11.05;3.65;;;17.30;99.90;;;;;;5011576;28;20104;-59
2022/08/21 02:25:06;;;;;;;10.30;3.67;;;17.30;99.90;;;;;;5011848;28;20053;-59
2022/08/21 02:27:40;;;;;;;9.93;3.80;;;17.30;99.90;;;;;;5011504;28;20050;-59
2022/08/21 02:30:06;;;;;;;5.93;3.50;;;17.30;99.90;;;;;;5012702;28;20516;-59
2022/08/21 02:32:32;;;;;;;8.63;4.00;;;17.30;99.90;;;;;;5012117;28;20609;-59
2022/08/21 02:34:57;;;;;;;9.60;4.10;;;17.30;99.90;;;;;;5011070;28;20073;-59
2022/08/21 02:37:24;;;;;;;7.78;4.63;;;17.30;99.90;;;;;;5011686;28;20060;-59
2022/08/21 02:39:50;;;;;;;10.38;3.97;;;17.30;99.90;;;;;;5012494;28;20061;-59
2022/08/21 02:42:16;;;;;;;10.40;4.20;;;17.20;99.90;;;;;;5012222;28;20096;-60
2022/08/21 02:44:41;;;;;;;8.23;3.92;;;17.20;99.90;;;;;;5011889;28;20455;-59
2022/08/21 02:47:07;;;;;;;8.23;4.03;;;17.20;99.90;;;;;;5012580;28;20046;-59
2022/08/21 02:49:33;;;;;;;9.02;4.15;;;17.20;99.90;;;;;;5012444;28;20045;-60
2022/08/21 02:51:59;;;;;;;8.23;4.10;;;17.20;99.90;;;;;;5012478;28;20490;-58
2022/08/21 02:54:24;;;;;;;9.70;4.30;;;17.20;99.90;;;;;;5012582;28;20129;-59
2022/08/21 02:56:50;;;;;;;9.48;4.43;;;17.20;99.90;;;;;;4994779;28;20200;-59
2022/08/21 02:59:16;;;;;;;6.38;3.92;;;17.10;99.90;;;;;;5012385;28;20046;-59
2022/08/21 03:01:42;;;;;;;10.20;4.20;;;17.10;99.90;;;;;;5010648;28;20049;-59
2022/08/21 03:04:07;;;;;;;9.43;4.15;;;17.10;99.90;;;;;;5012391;28;20395;-61
2022/08/21 03:06:33;;;;;;;10.93;4.22;;;17.10;99.90;;;;;;5011845;28;20042;-60
2022/08/21 03:08:59;;;;;;;10.73;3.72;;;17.10;99.90;;;;;;5011134;28;20057;-59
2022/08/21 03:11:26;;;;;;;7.00;3.60;;;17.10;99.90;;;;;;5011195;28;20041;-59
2022/08/21 03:13:52;;;;;;;9.27;3.95;;;17.10;99.90;;;;;;5011741;28;20093;-60
2022/08/21 03:16:19;;;;;;;9.75;4.25;;;17.10;99.90;;;;;;5012131;28;20494;-59
2022/08/21 03:18:45;;;;;;;8.13;3.80;;;17.10;99.90;;;;;;5011907;28;20058;-60
2022/08/21 03:21:12;;;;;;;7.70;4.03;;;17.10;99.90;;;;;;5011010;28;20053;-59
2022/08/21 03:23:39;;;;;;;10.38;4.00;;;17.00;99.90;;;;;;5011500;28;20536;-60
2022/08/21 03:26:06;;;;;;;11.65;4.30;;;17.00;99.90;;;;;;5010833;28;20081;-60
2022/08/21 03:28:32;;;;;;;13.25;4.88;;;17.00;99.90;;;;;;5011731;28;20057;-63
2022/08/21 03:30:58;;;;;;;9.25;4.13;;;17.00;99.90;;;;;;5010934;28;20464;-59
2022/08/21 03:33:24;;;;;;;8.75;4.30;;;17.00;99.90;;;;;;5011872;28;20077;-59
2022/08/21 03:36:00;;;;;;;8.40;3.90;;;17.00;99.90;;;;;;5011215;28;20061;-59
2022/08/21 03:38:27;;;;;;;9.43;4.00;;;;;;;;;;5011984;28;20112;-59
2022/08/21 03:40:53;;;;;;;9.38;4.32;;;17.00;99.90;;;;;;5011495;28;20262;-60
2022/08/21 03:43:19;;;;;;;10.10;4.13;;;16.90;99.90;;;;;;5011814;28;20049;-59
2022/08/21 03:45:44;;;;;;;11.95;3.60;;;16.90;99.90;;;;;;5011582;28;20042;-59
2022/08/21 03:48:10;;;;;;;11.95;4.00;;;16.90;99.90;;;;;;5011828;28;20383;-59
2022/08/21 03:50:39;;;;;;;8.70;3.85;;;16.90;99.90;;;;;;5011618;28;20050;-60
2022/08/21 03:53:05;;;;;;;10.30;4.30;;;16.90;99.90;;;;;;5010312;28;20049;-59
2022/08/21 03:55:30;;;;;;;10.32;4.25;;;16.90;99.90;;;;;;5011522;28;20042;-59
2022/08/21 03:57:56;;;;;;;11.07;4.38;;;16.90;99.90;;;;;;5014302;28;20125;-60
2022/08/21 04:00:23;;;;;;;6.60;4.03;;;16.80;99.90;;;;;;5014511;28;20038;-61
2022/08/21 04:02:49;;;;;;;10.82;4.13;;;16.80;99.90;;;;;;5013777;28;20172;-60
2022/08/21 04:05:26;;;;;;;6.82;4.13;;;16.80;99.90;;;;;;5015597;28;20136;-59
2022/08/21 04:07:54;;;;;;;11.18;4.70;;;16.80;99.90;;;;;;5015224;28;20376;-58
2022/08/21 04:10:20;;;;;;;7.50;4.22;;;16.70;99.90;;;;;;5015051;28;20765;-58
2022/08/21 04:12:45;;;;;;;8.75;4.18;;;16.70;99.90;;;;;;5013451;28;20149;-59
2022/08/21 04:15:12;;;;;;;9.18;4.18;;;16.70;99.90;;;;;;5014049;28;20050;-59
2022/08/21 04:17:38;;;;;;;10.38;4.68;;;16.70;99.90;;;;;;5013920;28;20157;-63
2022/08/21 04:20:04;;;;;;;7.50;4.70;;;16.70;99.90;;;;;;5015257;28;20520;-59
2022/08/21 04:22:30;;;;;;;7.53;4.10;;;16.60;99.90;;;;;;5014962;28;20088;-59
2022/08/21 04:24:55;;;;;;;10.15;4.50;;;16.70;99.90;;;;;;4997129;28;20074;-60
2022/08/21 04:27:21;;;;;;;11.35;4.57;;;16.60;99.90;;;;;;5014719;28;20491;-60
2022/08/21 04:29:47;;;;;;;12.20;4.45;;;16.60;99.90;;;;;;4997141;28;20103;-60
2022/08/21 04:32:12;;;;;;;9.05;4.65;;;16.70;99.90;;;;;;5014844;28;20137;-60
2022/08/21 04:34:38;;;;;;;12.00;4.68;;;16.60;99.90;;;;;;5013810;28;20053;-59
2022/08/21 04:37:04;;;;;;;9.35;4.13;;;16.60;99.90;;;;;;5013404;28;20052;-61
2022/08/21 04:39:29;;;;;;;12.20;3.92;;;16.60;99.90;;;;;;5014730;28;20052;-60
2022/08/21 04:41:55;;;;;;;8.10;4.10;;;16.60;99.90;;;;;;5013577;28;20045;-60
2022/08/21 04:44:21;;;;;;;9.40;3.95;;;16.60;99.90;;;;;;5014784;28;20056;-60
2022/08/21 04:46:46;;;;;;;9.65;4.10;;;16.70;99.90;;;;;;5014439;28;20052;-60
2022/08/21 04:49:12;;;;;;;11.85;4.07;;;16.70;99.90;;;;;;4997144;28;20046;-60
2022/08/21 04:51:38;;;;;;;9.77;4.72;;;16.60;99.90;;;;;;5014750;28;20487;-60
2022/08/21 04:54:14;;;;;;;11.65;4.35;;;16.60;99.90;;;;;;5014227;28;20048;-59
2022/08/21 04:56:47;;;;;;;9.48;4.30;;;16.70;99.90;;;;;;5013107;28;20526;-61
2022/08/21 04:59:22;;;;;;;9.43;4.07;;;16.70;99.90;;;;;;5014635;28;20459;-58
2022/08/21 05:01:48;;;;;;;10.25;4.30;;;16.70;99.90;;;;;;5012931;28;20049;-59
2022/08/21 05:04:18;;;;;;;10.30;4.20;;;16.70;99.90;;;;;;5014595;28;20041;-59
2022/08/21 05:06:46;;;;;;;11.68;4.18;;;16.70;99.90;;;;;;5012160;28;20053;-63
2022/08/21 05:09:16;;;;;;;10.43;4.40;;;16.70;99.90;;;;;;5013074;28;20115;-59
2022/08/21 05:11:42;;;;;;;9.20;4.20;;;16.70;99.90;;;;;;4996953;28;20519;-59
2022/08/21 05:14:09;;;;;;;9.88;4.40;;;16.70;99.90;;;;;;5011896;28;20108;-59
2022/08/21 05:16:35;;;;;;;9.77;3.90;;;16.80;99.90;;;;;;5013963;28;20043;-59
2022/08/21 05:19:00;;;;;;;11.73;4.30;;;16.80;99.90;;;;;;5013813;28;20404;-59
2022/08/21 05:21:26;;;;;;;9.63;4.25;;;16.80;99.90;;;;;;5014089;28;20053;-61
2022/08/21 05:23:52;;;;;;;7.78;3.85;;;16.90;99.90;;;;;;5013868;28;20466;-58
2022/08/21 05:26:17;;;;;;;12.40;4.65;;;16.90;99.90;;;;;;5014084;28;20104;-59
2022/08/21 05:28:43;;;;;;;10.88;4.43;;;17.00;99.90;;;;;;5014022;28;20056;-59
2022/08/21 05:31:09;;;;;;;11.63;4.43;;;17.00;99.90;;;;;;5013704;28;20046;-59
2022/08/21 05:33:35;;;;;;;8.15;4.22;;;17.10;99.90;;;;;;5014122;28;20356;-58
2022/08/21 05:36:00;;;;;;;10.05;4.32;;;17.20;99.90;;;;;;4996279;28;20113;-59
2022/08/21 05:38:28;;;;;;;6.95;3.35;;;17.30;99.90;;;;;;5012676;28;20053;-59
2022/08/21 05:40:54;;;;;;;8.43;4.00;;;17.50;99.90;;;;;;5012460;28;20546;-59
2022/08/21 05:43:20;;;;;;;10.05;4.50;;;17.90;99.90;;;;;;5013787;28;20086;-59
2022/08/21 05:45:47;;;;;;;10.68;4.50;;;;;;;;;;5012568;28;20133;-60
2022/08/21 05:48:14;;;;;;;7.25;3.63;;;18.50;99.90;;;;;;5013224;28;20118;-60
2022/08/21 05:50:41;;;;;;;9.60;3.90;;;20.10;99.90;;;;;;4996167;28;20060;-60
2022/08/21 05:53:06;;;;;;;9.32;3.85;;;20.90;99.90;;;;;;5013108;28;20072;-60
2022/08/21 05:55:32;;;;;;;11.70;4.25;;;21.70;99.90;;;;;;5012352;28;20483;-60
2022/08/21 05:57:58;;;;;;;9.30;3.60;;;22.40;99.90;;;;;;4995990;28;20057;-60
2022/08/21 06:00:24;;;;;;;11.30;4.35;;;23.00;99.90;;;;;;5013279;28;20046;-60
2022/08/21 06:02:50;;;;;;;9.35;3.90;;;;;;;;;;5013308;28;20049;-60
2022/08/21 06:05:17;;;;;;;10.88;4.43;;;24.10;99.90;;;;;;5013290;28;20053;-61
2022/08/21 06:07:43;;;;;;;7.30;3.58;;;24.80;99.60;;;;;;5012264;28;20053;-60
2022/08/21 06:10:10;;;;;;;9.02;3.70;;;25.40;97.10;;;;;;5012791;28;20049;-61
2022/08/21 06:12:36;;;;;;;7.72;3.17;;;25.80;95.90;;;;;;5012820;28;20073;-60
2022/08/21 06:15:02;;;;;;;9.40;3.40;;;26.40;95.40;;;;;;5012820;28;20475;-60
2022/08/21 06:17:28;;;;;;;6.57;3.08;;;26.90;94.70;;;;;;5013186;28;20045;-61
2022/08/21 06:19:54;;;;;;;9.02;3.70;;;27.00;94.70;;;;;;5012406;28;20053;-65
2022/08/21 06:22:20;;;;;;;9.77;4.18;;;27.20;94.00;;;;;;5013085;28;20084;-60
2022/08/21 06:24:47;;;;;;;10.00;3.60;;;27.40;93.60;;;;;;5012088;28;20041;-62
2022/08/21 06:27:13;;;;;;;8.35;3.38;;;27.40;93.40;;;;;;5012760;28;20069;-60
2022/08/21 06:29:39;;;;;;;9.85;3.20;;;27.30;93.80;;;;;;5012949;28;20403;-61
2022/08/21 06:32:07;;;;;;;8.05;3.28;;;27.50;93.80;;;;;;4995149;28;20057;-61
2022/08/21 06:34:37;;;;;;;7.78;3.40;;;27.60;93.70;;;;;;5011430;28;20122;-60
2022/08/21 06:37:03;;;;;;;7.32;3.25;;;27.50;92.80;;;;;;5011246;28;20041;-60
2022/08/21 06:39:29;;;;;;;7.30;3.20;;;27.60;92.80;;;;;;5012828;28;20054;-62
2022/08/21 06:41:55;;;;;;;7.75;3.03;;;27.60;92.20;;;;;;5012736;28;20052;-61
2022/08/21 06:44:21;;;;;;;5.55;2.88;;;27.60;93.10;;;;;;5012365;28;20128;-61
2022/08/21 06:46:47;;;;;;;10.60;3.28;;;27.80;92.50;;;;;;5012716;28;20052;-60
2022/08/21 06:49:12;;;;;;;9.27;3.15;;;27.70;92.50;;;;;;5012555;28;20153;-60
2022/08/21 06:51:39;;;;;;;8.05;3.00;;;27.90;92.20;;;;;;5012819;28;20091;-62
2022/08/21 06:54:04;;;;;;;8.02;2.75;;;28.00;92.20;;;;;;5012005;28;20042;-60
2022/08/21 06:56:30;;;;;;;7.63;2.67;;;28.10;92.30;;;;;;5011267;28;20052;-60
2022/08/21 06:58:56;;;;;;;8.60;2.90;;;28.00;92.30;;;;;;5012532;28;20089;-60
2022/08/21 07:01:24;;;;;;;8.20;2.53;;;27.70;91.90;;;;;;5012216;28;20435;-60
2022/08/21 07:03:50;;;;;;;7.82;2.78;;;27.30;92.40;;;;;;5011390;28;20125;-64
2022/08/21 07:06:16;;;;;;;7.80;2.60;;;27.00;92.50;;;;;;4994466;28;20133;-60
2022/08/21 07:08:42;;;;;;;8.00;2.80;;;26.70;92.70;;;;;;4995170;28;20072;-60
2022/08/21 07:11:17;;;;;;;8.38;2.80;;;26.20;92.80;;;;;;5012066;28;20344;-61
2022/08/21 07:13:43;;;;;;;7.80;2.60;;;26.10;93.30;;;;;;5011894;28;20149;-60
2022/08/21 07:16:09;;;;;;;8.48;2.50;;;26.10;93.20;;;;;;5011911;28;20473;-60
2022/08/21 07:18:35;;;;;;;8.77;2.95;;;26.50;93.20;;;;;;5011052;28;20116;-60
2022/08/21 07:21:03;;;;;;;9.05;2.75;;;26.70;92.70;;;;;;5012205;28;20085;-61
2022/08/21 07:23:32;;;;;;;7.07;2.75;;;26.50;92.60;;;;;;5011061;28;20108;-60
2022/08/21 07:26:00;;;;;;;7.07;2.58;;;26.20;92.50;;;;;;5012168;28;20527;-62
2022/08/21 07:28:26;;;;;;;7.97;2.75;;;25.80;92.50;;;;;;5011850;28;20450;-61
2022/08/21 07:30:55;;;;;;;5.70;2.40;;;25.30;92.80;;;;;;5010297;28;20394;-60
2022/08/21 07:33:21;;;;;;;8.15;2.67;;;24.80;93.30;;;;;;5011686;28;20046;-60
2022/08/21 07:35:47;;;;;;;7.47;2.30;;;24.60;93.60;;;;;;5012024;28;20046;-61
2022/08/21 07:38:13;;;;;;;8.95;2.75;;;24.80;93.50;;;;;;5010504;28;20552;-60
2022/08/21 07:40:38;;;;;;;8.77;2.85;;;25.50;93.30;;;;;;5012028;28;20089;-60
2022/08/21 07:43:05;;;;;;;8.13;2.50;;;26.30;93.30;;;;;;5010487;28;20124;-65
2022/08/21 07:45:30;;;;;;;8.90;2.40;;;27.00;92.00;;;;;;5010842;28;20111;-60
2022/08/21 07:47:56;;;;;;;6.40;2.20;;;27.50;91.30;;;;;;5010789;28;20466;-61
2022/08/21 07:50:22;;;;;;;8.15;2.22;;;28.10;91.10;;;;;;5011844;28;20045;-60
2022/08/21 07:52:48;;;;;;;6.55;2.10;;;28.50;90.30;;;;;;5010641;28;20132;-61
2022/08/21 07:55:17;;;;;;;4.63;1.70;;;28.60;89.70;;;;;;5011646;28;20049;-60
2022/08/21 07:57:44;;;;;;;12.20;2.88;;;28.90;89.90;;;;;;5011831;28;20402;-60
2022/08/21 08:00:17;;;;;;;6.93;2.40;;;29.30;89.50;;;;;;5011610;28;20142;-60
2022/08/21 08:02:49;;;;;;;7.65;2.10;;;29.80;88.10;;;;;;5010672;28;20038;-60
2022/08/21 08:05:16;;;;;;;5.40;2.20;;;30.30;87.40;;;;;;5011544;28;20061;-61
2022/08/21 08:07:42;;;;;;;10.13;2.40;;;30.90;87.00;;;;;;5011817;28;20041;-61
2022/08/21 08:10:10;;;;;;;7.07;2.35;;;31.40;86.70;;;;;;4994377;28;20153;-65
2022/08/21 08:12:39;;;;;;;5.72;2.20;;;31.70;83.80;;;;;;5011701;28;20058;-61
2022/08/21 08:15:07;;;;;;;8.45;2.25;;;31.80;84.00;;;;;;5011670;28;20472;-61
2022/08/21 08:17:33;;;;;;;7.85;2.60;;;32.30;84.10;;;;;;5009910;28;20301;-62
2022/08/21 08:20:00;;;;;;;8.15;2.05;;;32.70;82.70;;;;;;4994022;28;20140;-61
2022/08/21 08:22:27;;;;;;;8.50;2.25;;;32.90;83.10;;;;;;5010400;28;20049;-61
2022/08/21 08:24:53;;;;;;;8.57;2.40;;;33.00;83.00;;;;;;5011695;28;20050;-61
2022/08/21 08:27:20;;;;;;;7.03;2.70;;;33.20;81.60;;;;;;5011284;28;20057;-61
2022/08/21 08:29:46;;;;;;;7.60;2.30;;;33.20;82.20;;;;;;4993767;28;20053;-62
2022/08/21 08:32:12;;;;;;;8.18;2.50;;;33.60;82.00;;;;;;5011220;28;20049;-59
2022/08/21 08:34:39;;;;;;;8.73;2.55;;;33.90;81.30;;;;;;5011598;28;20041;-60
2022/08/21 08:37:06;;;;;;;6.55;2.25;;;34.30;81.60;;;;;;4994249;28;20093;-61
2022/08/21 08:39:32;;;;;;;7.65;2.33;;;34.10;80.90;;;;;;5011279;28;20123;-60
2022/08/21 08:42:07;;;;;;;9.13;2.85;;;34.10;80.70;;;;;;5013127;28;20093;-61
2022/08/21 08:44:33;;;;;;;9.27;2.63;;;33.90;80.30;;;;;;5014724;28;20053;-61
2022/08/21 08:47:00;;;;;;;8.90;2.40;;;33.90;81.10;;;;;;5013972;28;20149;-60
2022/08/21 08:49:36;;;;;;;7.88;2.80;;;34.30;81.80;;;;;;5014845;28;20156;-61
2022/08/21 08:52:20;;;;;;;8.93;2.95;;;34.30;79.80;;;;;;5013697;28;20049;-60
2022/08/21 08:55:00;;;;;;;6.82;2.22;;;34.10;79.80;;;;;;5014790;28;20189;-61
2022/08/21 08:57:26;;;;;;;7.40;3.10;;;33.70;80.00;;;;;;5014304;28;20129;-60
2022/08/21 08:59:55;;;;;;;6.57;2.42;;;33.40;80.90;;;;;;5014764;28;20399;-61
2022/08/21 09:02:27;;;;;;;8.65;2.72;;;33.40;80.90;;;;;;5014226;28;20050;-60
2022/08/21 09:04:53;;;;;;;8.75;2.90;;;33.60;81.10;;;;;;5014644;28;20049;-60
2022/08/21 09:07:32;;;;;;;9.88;2.92;;;33.60;80.80;;;;;;5014124;28;20064;-61
2022/08/21 09:10:18;;;;;;;9.40;2.40;;;33.70;80.60;;;;;;5014449;28;20097;-59
2022/08/21 09:13:02;;;;;;;10.15;2.70;;;33.40;80.90;;;;;;5014129;28;20200;-60
2022/08/21 09:15:36;;;;;;;7.38;2.58;;;33.10;81.60;;;;;;5014185;28;20050;-60
2022/08/21 09:18:16;;;;;;;7.93;2.47;;;32.60;81.70;;;;;;5014367;28;20104;-60
2022/08/21 09:20:45;;;;;;;8.65;3.00;;;32.90;82.70;;;;;;5014330;28;20111;-59
2022/08/21 09:23:28;;;;;;;7.25;2.42;;;32.90;81.90;;;;;;5014190;28;20042;-60
2022/08/21 09:26:07;;;;;;;9.38;2.67;;;32.50;81.70;;;;;;5014226;28;20125;-59
2022/08/21 09:28:34;;;;;;;8.73;2.60;;;32.10;82.20;;;;;;5013845;28;20046;-59
2022/08/21 09:31:15;;;;;;;7.88;2.58;;;31.50;82.60;;;;;;5014056;28;20042;-61
2022/08/21 09:33:41;;;;;;;8.93;3.00;;;31.40;83.70;;;;;;5013602;28;20048;-60
2022/08/21 09:36:07;;;;;;;7.50;2.70;;;31.60;83.30;;;;;;5013857;28;20132;-60
2022/08/21 09:38:37;;;;;;;9.32;2.33;;;31.80;83.50;;;;;;5012481;28;20066;-60
2022/08/21 09:41:05;;;;;;;6.40;2.22;;;31.70;83.80;;;;;;5013880;28;20045;-59
2022/08/21 09:43:32;;;;;;;7.95;2.45;;;31.40;84.20;;;;;;4995848;28;20046;-60
2022/08/21 09:46:11;;;;;;;7.88;2.35;;;31.20;83.90;;;;;;5012648;28;20486;-60
2022/08/21 09:48:47;;;;;;;10.25;2.55;;;31.00;83.90;;;;;;5012371;28;20045;-60
2022/08/21 09:51:23;;;;;;;8.85;2.60;;;30.80;84.00;;;;;;5013845;28;20046;-60
2022/08/21 09:54:12;;;;;;;9.35;2.95;;;30.50;85.20;;;;;;5013021;28;20069;-59
2022/08/21 09:59:37;;;;;;;10.15;2.72;;;29.80;84.90;;;;;;5013288;28;20484;-60
2022/08/21 10:02:24;;;;;;;8.65;2.75;;;29.80;85.70;;;;;;5013489;28;20068;-60
2022/08/21 10:05:21;;;;;;;7.55;2.25;;;29.70;85.20;;;;;;5013463;28;20053;-59
2022/08/21 10:07:47;;;;;;;8.25;2.30;;;29.60;85.10;;;;;;5012983;28;20088;-59
2022/08/21 10:10:21;;;;;;;7.88;2.60;;;29.60;85.80;;;;;;4995892;28;20085;-60
2022/08/21 10:13:17;;;;;;;9.93;2.78;;;29.50;85.50;;;;;;5011944;28;20176;-59
2022/08/21 10:16:25;;;;;;;5.13;2.20;;;29.30;85.30;;;;;;5007956;28;20045;-60
2022/08/21 10:19:12;;;;;;;9.52;2.70;;;29.20;86.90;;;;;;4968113;28;20061;-59
2022/08/21 10:22:12;;;;;;;8.18;2.50;;;29.00;86.40;;;;;;5012986;28;20116;-59
2022/08/21 10:25:00;;;;;;;8.80;2.80;;;28.90;86.80;;;;;;5012862;28;20045;-61
2022/08/21 10:28:07;;;;;;;7.53;2.40;;;28.80;86.80;;;;;;5011838;28;20046;-64
2022/08/21 10:30:40;;;;;;;11.82;3.00;;;28.80;87.30;;;;;;4989216;28;20274;-60
2022/08/21 10:33:26;;;;;;;10.13;2.45;;;28.60;86.90;;;;;;5013021;28;20387;-60
2022/08/21 10:35:57;;;;;;;6.68;2.28;;;28.50;87.40;;;;;;5012583;28;20488;-59
2022/08/21 10:38:58;;;;;;;6.63;2.20;;;28.60;87.30;;;;;;5012908;28;20124;-59
2022/08/21 10:41:57;;;;;;;8.02;2.60;;;28.70;86.20;;;;;;5012913;28;20061;-59
2022/08/21 10:44:32;;;;;;;7.00;2.13;;;28.40;85.40;;;;;;5012919;28;20097;-59
2022/08/21 10:47:05;;;;;;;8.02;2.40;;;28.30;86.80;;;;;;5012890;28;20085;-59
2022/08/21 10:50:03;;;;;;;7.45;2.47;;;28.10;86.30;;;;;;5011574;28;20434;-59
2022/08/21 10:52:55;;;;;;;8.15;2.55;;;28.10;86.80;;;;;;5012447;28;20136;-63
2022/08/21 10:56:04;;;;;;;8.68;2.30;;;27.80;86.40;;;;;;5012702;28;20050;-63
2022/08/21 10:58:34;;;;;;;7.82;2.50;;;27.70;86.90;;;;;;5001504;28;20068;-63
2022/08/21 11:01:31;;;;;;;7.57;2.45;;;27.60;88.20;;;;;;5012453;28;20044;-60
2022/08/21 11:04:35;;;;;;;9.57;2.65;;;27.40;89.00;;;;;;5012512;28;20455;-60
2022/08/21 11:07:16;;;;;;;9.48;2.75;;;27.20;89.50;;;;;;5012270;28;20085;-60
2022/08/21 11:09:45;;;;;;;9.48;3.03;;;27.20;90.00;;;;;;5011040;28;20143;-60
2022/08/21 11:12:27;;;;;;;6.90;2.30;;;27.00;90.50;;;;;;5012164;28;20399;-60
2022/08/21 11:15:06;;;;;;;12.73;3.03;;;27.20;91.00;;;;;;5010877;28;20499;-60
2022/08/21 11:17:55;;;;;;;9.18;2.47;;;27.30;90.50;;;;;;5012388;28;20455;-61
2022/08/21 11:20:43;;;;;;;9.50;2.33;;;27.40;90.30;;;;;;5012285;28;20185;-60
2022/08/21 11:23:27;;;;;;;5.43;2.15;;;27.50;90.80;;;;;;5012374;28;20084;-60
2022/08/21 11:26:07;;;;;;;7.35;2.42;;;27.70;90.20;;;;;;5010723;28;20049;-60
2022/08/21 11:28:38;;;;;;;9.40;2.38;;;27.50;90.00;;;;;;5011702;28;20045;-63
2022/08/21 11:31:12;;;;;;;6.18;2.22;;;27.60;89.90;;;;;;4994613;28;20045;-60
2022/08/21 11:33:47;;;;;;;6.00;2.10;;;27.60;88.50;;;;;;5011717;28;20137;-60
2022/08/21 11:36:31;;;;;;;6.78;2.47;;;27.50;87.60;;;;;;5012403;28;20053;-60
2022/08/21 11:39:10;;;;;;;6.25;2.10;;;27.60;88.40;;;;;;5011600;28;20050;-61
2022/08/21 11:41:54;;;;;;;6.95;2.20;;;27.70;87.90;;;;;;5010784;28;20195;-60
2022/08/21 11:44:46;;;;;;;7.75;2.55;;;27.80;87.60;;;;;;4994714;28;20137;-60
2022/08/21 11:47:25;;;;;;;7.13;2.47;;;27.90;88.70;;;;;;5012022;28;20050;-60
2022/08/21 11:50:18;;;;;;;6.68;2.03;;;27.90;87.40;;;;;;5011714;28;20046;-60
2022/08/21 11:52:51;;;;;;;5.70;2.10;;;27.80;88.00;;;;;;5010399;28;20089;-61
2022/08/21 11:55:27;;;;;;;8.27;2.58;;;27.70;88.90;;;;;;5011862;28;20124;-60
2022/08/21 11:58:01;;;;;;;8.35;2.50;;;27.50;88.80;;;;;;5011594;28;20046;-61
2022/08/21 12:00:38;;;;;;;7.95;2.72;;;27.40;89.40;;;;;;5011652;28;20042;-61
2022/08/21 12:03:27;;;;;;;7.50;2.10;;;27.30;89.90;;;;;;5011934;28;20137;-60
2022/08/21 12:05:57;;;;;;;8.57;2.50;;;27.30;90.10;;;;;;5011523;28;20124;-60
2022/08/21 12:08:31;;;;;;;9.85;2.67;;;27.20;88.70;;;;;;5011720;28;20125;-60
2022/08/21 12:11:15;;;;;;;6.07;2.20;;;27.30;89.30;;;;;;5011473;28;20052;-60
2022/08/21 12:13:58;;;;;;;7.43;2.58;;;27.40;88.80;;;;;;5011353;28;20093;-60
2022/08/21 12:16:36;;;;;;;5.30;2.00;;;27.40;88.50;;;;;;5012664;28;20115;-60
2022/08/21 12:19:06;;;;;;;4.63;2.03;;;27.40;88.80;;;;;;5013818;28;20125;-60
2022/08/21 12:21:33;;;;;;;5.97;2.15;;;27.70;88.90;;;;;;5015389;28;20069;-60
2022/08/21 12:24:13;;;;;;;6.30;2.05;;;27.90;86.80;;;;;;5014083;28;20038;-60
2022/08/21 12:26:53;;;;;;;6.15;2.35;;;28.00;85.70;;;;;;5015306;28;20176;-61
2022/08/21 12:29:26;;;;;;;10.52;2.28;;;27.70;85.90;;;;;;5015178;28;20491;-60
2022/08/21 12:32:09;;;;;;;6.40;2.30;;;27.70;86.20;;;;;;5014913;28;20077;-61
2022/08/21 12:35:00;;;;;;;6.13;1.90;;;27.70;87.30;;;;;;5015152;28;20125;-60
2022/08/21 12:37:39;;;;;;;7.18;2.20;;;27.70;85.90;;;;;;5015137;28;20129;-60
2022/08/21 12:40:47;;;;;;;7.50;2.25;;;27.70;85.80;;;;;;5013798;28;20431;-60
2022/08/21 12:43:21;;;;;;;8.50;2.30;;;27.80;86.60;;;;;;5014633;28;20052;-60
2022/08/21 12:45:50;;;;;;;8.10;2.30;;;27.90;86.00;;;;;;5013631;28;20102;-60
2022/08/21 12:48:46;;;;;;;6.75;2.55;;;27.80;85.50;;;;;;5014939;28;20509;-61
2022/08/21 12:51:18;;;;;;;8.40;2.10;;;27.80;85.50;;;;;;5014924;28;20115;-60
2022/08/21 12:53:55;;;;;;;6.38;2.20;;;27.70;84.70;;;;;;5013262;28;20050;-64
2022/08/21 12:56:25;;;;;;;5.80;1.88;;;27.50;83.90;;;;;;4997495;28;20132;-60
2022/08/21 12:58:54;;;;;;;6.85;1.70;;;27.40;83.90;;;;;;5014122;28;20550;-60
2022/08/21 13:01:38;;;;;;;5.93;2.08;;;27.20;84.70;;;;;;5013586;28;20169;-60
2022/08/21 13:04:09;;;;;;;;;;;27.10;84.40;;;;;;5014495;28;20500;-60
2022/08/21 13:06:41;;;;;;;6.45;2.03;;;27.10;84.30;;;;;;5014630;28;19921;-60